Latest Weather Observations for Sydney Airport

IDN60901

Issued at 12:01 am EST Monday 29 August 2016 (issued every 10 minutes, with the page automatically refreshed every 10 minutes)

About weather observations | Map of Sydney area stations | Latest observations for Sydney area | Other Formats
Station Details ID: 066037 Name: SYDNEY AIRPORT AMO Lat: -33.95 Lon: 151.17 Height: 6.0 m
Data from the previous 72 hours. | See also: Recent months at Sydney Airport
Date/Time
EST
Temp
°C
App
Temp
°C
Dew
Point
°C
Rel
Hum
%
Delta-T
°C
Wind Press
QNH
hPa
Press
MSL
hPa
Rain since
9am
mm
Dir  Spd
km/h
Gust
km/h
Spd
kts
Gust
kts
28/11:30pm 12.8 9.6 5.0 59 3.6 NNW 11 13 6 7 1023.3 1023.3 0.0
28/11:00pm 13.1 10.2 4.5 56 3.9 N 9 11 5 6 1023.4 1023.4 0.0
28/10:30pm 13.2 10.3 4.7 56 3.9 NW 9 11 5 6 1023.6 1023.6 0.0
28/10:00pm 13.7 10.7 4.0 52 4.4 NW 9 15 5 8 1023.5 1023.5 0.0
28/09:30pm 13.5 9.9 4.8 55 4.0 WNW 13 19 7 10 1023.6 1023.6 0.0
28/09:00pm 14.2 11.3 4.9 53 4.3 NW 9 11 5 6 1023.5 1023.5 0.0
28/08:30pm 14.6 12.1 4.9 52 4.5 NNW 7 7 4 4 1023.2 1023.2 0.0
28/08:00pm 15.0 12.5 4.9 51 4.7 N 7 9 4 5 1023.0 1023.0 0.0
28/07:30pm 15.8 13.1 3.5 43 5.6 N 7 9 4 5 1022.7 1022.7 0.0
28/07:00pm 15.4 12.7 3.5 45 5.4 NNE 7 9 4 5 1022.5 1022.5 0.0
28/06:30pm 15.3 14.0 4.3 48 5.1 CALM 0 4 0 2 1022.1 1022.1 0.0
28/06:00pm 15.5 12.5 4.0 46 5.3 SSW 9 15 5 8 1021.8 1021.8 0.0
28/05:30pm 16.2 13.1 5.5 49 5.1 SSW 11 15 6 8 1021.6 1021.6 0.0
28/05:00pm 16.7 14.0 5.7 48 5.3 SSE 9 11 5 6 1021.4 1021.4 0.0
28/04:30pm 17.1 14.6 4.0 41 6.1 SW 6 9 3 5 1021.0 1021.0 0.0
28/04:00pm 17.5 13.5 3.1 38 6.6 SSE 13 17 7 9 1020.9 1020.9 0.0
28/03:30pm 17.2 13.7 5.3 45 5.7 SSE 13 17 7 9 1020.9 1020.9 0.0
28/03:00pm 17.4 13.9 5.3 45 5.8 SSE 13 19 7 10 1020.9 1020.9 0.0
28/02:30pm 17.4 13.5 3.3 39 6.5 SSE 13 17 7 9 1020.4 1020.4 0.0
28/02:00pm 18.0 13.4 1.7 33 7.3 SSE 15 19 8 10 1020.5 1020.5 0.0
28/01:30pm 18.3 13.2 0.5 30 7.8 SE 17 22 9 12 1020.5 1020.5 0.0
28/01:00pm 17.7 12.5 2.2 35 7.0 SE 19 24 10 13 1020.7 1020.7 0.0
28/12:30pm 18.0 12.9 3.0 36 6.9 SSE 19 22 10 12 1020.8 1020.8 0.0
28/12:00pm 18.5 12.7 0.1 29 8.0 WSW 20 30 11 16 1021.2 1021.2 0.0
28/11:30am 17.8 12.9 1.7 34 7.2 WSW 17 28 9 15 1021.7 1021.7 0.0
28/11:00am 16.6 11.7 2.0 37 6.5 W 17 22 9 12 1022.1 1022.1 0.0
28/10:30am 16.4 11.6 2.6 39 6.2 WNW 17 28 9 15 1022.5 1022.5 0.0
28/10:00am 15.1 9.8 1.9 41 5.8 WNW 19 26 10 14 1022.6 1022.6 0.0
28/09:30am 14.3 8.8 1.9 43 5.4 WNW 20 28 11 15 1022.7 1022.7 0.0
28/09:00am 13.4 7.4 1.1 43 5.2 WNW 22 28 12 15 1022.8 1022.8 0.2
28/08:30am 12.6 8.0 1.5 46 4.7 NW 15 22 8 12 1022.8 1022.8 0.2
28/08:00am 10.6 6.3 1.2 52 3.9 NW 13 15 7 8 1023.0 1023.0 0.2
28/07:30am 9.5 5.3 1.8 58 3.2 NW 13 17 7 9 1022.8 1022.8 0.2
28/07:00am 9.3 4.3 1.5 58 3.2 NW 17 22 9 12 1022.5 1022.5 0.2
28/06:30am 9.9 4.9 1.4 55 3.5 NW 17 26 9 14 1022.0 1022.0 0.2
28/06:00am 9.5 4.0 1.8 58 3.2 NW 20 28 11 15 1021.6 1021.6 0.2
28/05:30am 9.4 3.0 1.1 56 3.4 NW 24 30 13 16 1021.6 1021.6 0.2
28/05:00am 8.9 3.5 1.0 57 3.2 NW 19 22 10 12 1021.6 1021.6 0.2
28/04:30am 8.8 3.4 1.2 59 3.1 WNW 19 24 10 13 1021.5 1021.5 0.2
28/04:00am 8.9 3.9 1.3 59 3.1 WNW 17 19 9 10 1021.2 1021.2 0.2
28/03:30am 8.4 3.9 2.1 64 2.6 W 15 20 8 11 1021.1 1021.1 0.2
28/03:00am 8.8 4.3 2.0 62 2.8 WNW 15 19 8 10 1021.0 1021.0 0.2
28/02:30am 8.7 5.0 2.5 65 2.6 NW 11 15 6 8 1021.2 1021.2 0.2
28/02:00am 9.4 6.1 2.5 62 2.9 WNW 9 11 5 6 1021.4 1021.4 0.2
28/01:30am 10.2 6.1 2.4 58 3.3 NW 13 13 7 7 1021.8 1021.8 0.2
28/01:00am 9.9 5.5 2.9 62 3.0 WNW 15 17 8 9 1021.8 1021.8 0.2
28/12:30am 10.8 6.7 2.3 55 3.6 W 13 19 7 10 1021.9 1021.9 0.2
28/12:00am 11.4 7.4 2.6 54 3.8 W 13 17 7 9 1021.9 1021.9 0.2
 
Date/Time
EST
Temp
°C
App
Temp
°C
Dew
Point
°C
Rel
Hum
%
Delta-T
°C
Wind Press
QNH
hPa
Press
MSL
hPa
Rain since
9am
mm
Dir  Spd
km/h
Gust
km/h
Spd
kts
Gust
kts
27/11:30pm 11.4 7.3 2.0 52 4.0 W 13 17 7 9 1021.7 1021.7 0.2
27/11:00pm 11.3 6.3 3.6 59 3.4 WSW 19 24 10 13 1021.7 1021.7 0.2
27/10:30pm 11.6 8.6 7.9 78 1.8 SW 13 17 7 9 1021.7 1021.7 0.2
27/10:00pm 12.7 10.2 8.0 73 2.3 WNW 11 13 6 7 1021.4 1021.4 0.2
27/09:30pm 13.7 10.8 8.0 68 2.8 NW 13 19 7 10 1021.2 1021.2 0.2
27/09:00pm 14.5 11.5 7.6 63 3.4 N 13 15 7 8 1021.1 1021.1 0.2
27/08:30pm 15.1 12.5 7.6 61 3.7 N 11 17 6 9 1021.2 1021.2 0.2
27/08:00pm 15.6 11.8 7.5 58 4.0 NNE 17 20 9 11 1021.1 1021.1 0.2
27/07:30pm 16.0 12.6 7.6 57 4.2 N 15 19 8 10 1020.9 1020.9 0.2
27/07:00pm 16.2 12.0 7.3 55 4.4 NNE 19 26 10 14 1020.4 1020.4 0.2
27/06:30pm 16.1 11.6 6.9 54 4.5 NNE 20 24 11 13 1020.1 1020.1 0.2
27/06:00pm 16.5 12.5 6.5 51 4.9 NNE 17 24 9 13 1020.2 1020.2 0.2
27/05:30pm 16.6 11.6 6.3 50 5.0 NE 22 28 12 15 1020.1 1020.1 0.2
27/05:00pm 17.0 12.1 5.3 46 5.6 NE 20 26 11 14 1019.9 1019.9 0.2
27/04:30pm 18.2 12.7 4.2 39 6.6 NE 22 28 12 15 1019.8 1019.8 0.2
27/04:00pm 18.0 13.1 3.9 39 6.6 NNE 19 24 10 13 1019.8 1019.8 0.2
27/03:30pm 18.7 13.4 2.9 35 7.3 NNE 20 26 11 14 1019.8 1019.8 0.2
27/03:00pm 19.1 14.0 0.9 29 8.1 NNE 17 30 9 16 1020.0 1020.0 0.2
27/02:30pm 19.3 14.8 -3.1 22 9.2 NW 11 20 6 11 1020.3 1020.3 0.2
27/02:00pm 19.3 14.5 -2.7 22 9.1 N 13 22 7 12 1020.5 1020.5 0.2
27/01:30pm 19.5 14.7 -2.2 23 9.1 NNW 13 19 7 10 1020.7 1020.7 0.2
27/01:00pm 19.0 15.0 0.3 28 8.2 N 11 15 6 8 1021.2 1021.2 0.2
27/12:30pm 18.1 14.3 -0.6 28 8.0 NNW 9 13 5 7 1021.8 1021.8 0.2
27/12:00pm 17.7 13.9 1.5 33 7.2 NW 11 19 6 10 1022.5 1022.5 0.2
27/11:30am 15.8 11.5 1.3 37 6.3 WNW 13 22 7 12 1022.9 1022.9 0.2
27/11:00am 17.0 12.3 1.0 34 7.0 W 15 30 8 16 1023.1 1023.1 0.2
27/10:30am 15.1 10.0 0.5 37 6.2 W 17 26 9 14 1023.2 1023.2 0.0
27/10:00am 15.3 10.6 0.9 37 6.2 W 15 22 8 12 1023.2 1023.2 0.0
27/09:30am 14.5 9.9 1.6 41 5.6 W 15 20 8 11 1023.3 1023.3 0.0
27/09:00am 13.7 9.3 2.8 47 4.8 W 15 19 8 10 1023.4 1023.4 2.4
27/08:30am 12.3 8.7 2.9 52 4.1 NW 11 19 6 10 1023.2 1023.2 2.4
27/08:00am 11.3 7.0 3.0 56 3.6 W 15 20 8 11 1023.0 1023.0 2.4
27/07:30am 9.4 4.0 2.5 62 2.9 W 20 26 11 14 1022.8 1022.8 2.4
27/07:00am 8.2 4.2 2.7 68 2.3 WNW 13 20 7 11 1022.7 1022.7 2.4
27/06:30am 7.5 3.5 3.0 73 1.9 WNW 13 17 7 9 1022.5 1022.5 2.4
27/06:00am 7.7 3.7 2.9 71 2.0 WNW 13 17 7 9 1022.2 1022.2 2.4
27/05:30am 8.4 4.5 3.2 70 2.2 NW 13 17 7 9 1022.0 1022.0 2.4
27/05:00am 8.3 5.1 2.8 68 2.3 NNW 9 13 5 7 1021.7 1021.7 2.4
27/04:30am 8.2 4.6 3.0 70 2.2 NNW 11 13 6 7 1021.5 1021.5 2.4
27/04:00am 8.5 4.3 3.9 73 2.0 WNW 15 17 8 9 1021.4 1021.4 2.4
27/03:30am 8.8 4.0 4.5 74 1.9 W 19 22 10 12 1021.3 1021.3 2.4
27/03:00am 9.0 4.7 5.4 78 1.6 W 17 20 9 11 1021.3 1021.3 2.4
27/02:30am 10.2 4.7 3.8 64 2.8 W 22 26 12 14 1021.4 1021.4 2.4
27/02:00am 10.4 7.4 7.9 84 1.2 W 13 17 7 9 1021.3 1021.3 2.4
27/01:30am 10.7 7.7 9.1 90 0.8 W 15 19 8 10 1021.5 1021.5 2.4
27/01:00am 11.3 9.1 9.5 89 0.9 SW 11 11 6 6 1021.6 1021.6 2.4
27/12:30am 11.5 9.1 8.7 83 1.4 SSW 11 19 6 10 1021.8 1021.8 2.4
27/12:00am 11.3 9.7 8.7 84 1.3 W 7 11 4 6 1021.7 1021.7 2.4
 
Date/Time
EST
Temp
°C
App
Temp
°C
Dew
Point
°C
Rel
Hum
%
Delta-T
°C
Wind Press
QNH
hPa
Press
MSL
hPa
Rain since
9am
mm
Dir  Spd
km/h
Gust
km/h
Spd
kts
Gust
kts
26/11:30pm 11.2 9.6 8.8 85 1.2 N 7 9 4 5 1021.6 1021.6 2.4
26/11:00pm 11.6 9.4 9.2 85 1.2 NW 11 13 6 7 1021.4 1021.4 2.4
26/10:30pm 11.8 9.1 8.8 82 1.5 W 13 17 7 9 1021.3 1021.3 2.4
26/10:00pm 12.0 8.9 7.2 72 2.3 WSW 13 20 7 11 1021.0 1021.0 2.4
26/09:30pm 12.6 8.9 6.2 65 3.0 S 15 19 8 10 1021.1 1021.1 2.2
26/09:00pm 12.3 5.8 8.0 75 2.1 SSE 32 37 17 20 1020.7 1020.7 2.0
26/08:51pm 12.4 6.7 8.3 76 2.0 S 28 37 15 20 1020.8 1020.8 2.0
26/08:30pm 12.1 8.3 8.9 81 1.6 S 19 22 10 12 1020.8 1020.8 2.0
26/08:00pm 12.0 5.4 8.6 80 1.7 SSE 33 41 18 22 1020.4 1020.4 1.0
26/07:30pm 12.8 5.2 7.7 71 2.5 SSE 37 50 20 27 1020.2 1020.2 0.8
26/07:21pm 13.4 7.9 9.3 76 2.1 S 28 41 15 22 1020.1 1020.1 0.8
26/07:00pm 13.4 9.9 8.8 74 2.3 S 17 20 9 11 1020.0 1020.0 0.8
26/06:30pm 12.3 5.9 9.5 83 1.4 S 33 48 18 26 1019.8 1019.8 0.6
26/06:00pm 13.6 6.2 8.4 71 2.6 S 37 48 20 26 1019.0 1019.0 0.0
26/05:30pm 14.1 7.8 7.4 64 3.3 SSW 30 35 16 19 1018.7 1018.7 0.0
26/05:00pm 14.2 7.5 7.2 63 3.4 SSW 32 37 17 20 1018.5 1018.5 0.0
26/04:30pm 14.5 7.9 7.6 63 3.4 S 32 50 17 27 1018.2 1018.2 0.0
26/04:00pm 14.9 8.3 7.6 61 3.6 S 32 37 17 20 1018.1 1018.1 0.0
26/03:30pm 14.6 8.4 6.0 56 4.1 S 28 33 15 18 1017.7 1017.7 0.0
26/03:00pm 14.8 8.6 6.3 56 4.1 S 28 37 15 20 1017.5 1017.5 0.0
26/02:30pm 15.2 9.0 6.3 55 4.3 S 28 39 15 21 1017.7 1017.7 0.0
26/02:00pm 15.0 8.5 6.5 57 4.1 S 30 39 16 21 1017.6 1017.6 0.0
26/01:37pm 15.1 8.8 5.6 53 4.5 S 28 46 15 25 1017.7 1017.7 0.0
26/01:30pm 15.2 8.4 5.2 51 4.7 S 30 35 16 19 1017.7 1017.7 0.0
26/01:00pm 15.1 8.4 5.4 52 4.6 S 30 35 16 19 1017.8 1017.8 0.0
26/12:30pm 14.8 8.0 5.0 52 4.6 SSW 30 37 16 20 1018.1 1018.1 0.0
26/12:00pm 13.8 6.9 4.7 54 4.2 SSW 30 37 16 20 1018.5 1018.5 0.0
26/11:30am 13.6 6.5 5.5 58 3.8 SSW 32 37 17 20 1018.6 1018.6 0.0
26/11:00am 13.3 6.9 5.1 57 3.8 SW 28 39 15 21 1018.9 1018.9 0.0
26/10:30am 13.8 7.0 5.2 56 4.0 SSW 30 43 16 23 1018.8 1018.8 0.0
26/10:00am 12.8 5.7 3.6 53 4.1 SW 30 35 16 19 1018.6 1018.6 0.0
26/09:30am 12.2 7.5 3.1 53 4.0 WSW 17 33 9 18 1018.8 1018.8 0.0
26/09:00am 10.9 5.6 2.8 57 3.5 WSW 20 26 11 14 1018.8 1018.8 0.2
26/08:30am 10.3 5.0 2.0 56 3.5 W 19 24 10 13 1018.3 1018.3 0.2
26/08:00am 9.3 3.1 2.1 61 3.0 W 24 30 13 16 1018.2 1018.2 0.2
26/07:30am 8.9 2.6 1.6 60 3.0 W 24 32 13 17 1018.1 1018.1 0.2
26/07:00am 7.9 2.1 2.4 68 2.3 W 22 28 12 15 1018.2 1018.2 0.2
26/06:30am 7.5 1.8 3.0 73 1.9 W 22 30 12 16 1017.8 1017.8 0.2
26/06:00am 7.2 1.1 2.9 74 1.8 W 24 30 13 16 1017.1 1017.1 0.2
26/05:30am 7.5 2.2 3.0 73 1.9 W 20 26 11 14 1016.9 1016.9 0.2
26/05:00am 7.4 1.7 3.1 74 1.8 W 22 26 12 14 1016.6 1016.6 0.2
26/04:30am 7.5 1.8 3.0 73 1.9 WSW 22 26 12 14 1016.4 1016.4 0.2
26/04:00am 7.4 3.0 2.9 73 1.9 W 15 19 8 10 1016.0 1016.0 0.2
26/03:30am 7.7 3.3 2.9 71 2.0 WNW 15 19 8 10 1015.7 1015.7 0.2
26/03:00am 8.2 3.5 3.0 70 2.2 W 17 22 9 12 1015.8 1015.8 0.2
26/02:30am 8.7 3.4 2.8 66 2.5 WSW 20 28 11 15 1015.7 1015.7 0.2
26/02:00am 9.1 2.2 2.7 64 2.7 WSW 28 35 15 19 1015.8 1015.8 0.2
26/01:30am 9.4 2.8 2.3 61 3.0 WSW 26 33 14 18 1015.8 1015.8 0.2
26/01:00am 9.7 2.7 1.8 58 3.3 WSW 28 35 15 19 1015.9 1015.9 0.2
26/12:30am 10.0 3.8 2.2 58 3.3 WSW 24 32 13 17 1015.8 1015.8 0.2

Latest Capital City Observations: Canberra | Sydney | Melbourne | Brisbane | Adelaide | Perth | Hobart | Darwin

Other Formats:

Comma delimited format used in spreadsheet applications
http://www.bom.gov.au/fwo/IDN60901/IDN60901.94767.axf

JavaScript Object Notation format (JSON) in row-major order
http://www.bom.gov.au/fwo/IDN60901/IDN60901.94767.json